Time;durP1;ratioP1;P1;durP2;ratioP2;P2;SDS_P1;SDS_P2;PMS_P1;PMS_P2;Temp;Humidity;BMP_temperature;BMP_pressure;BME280_temperature;BME280_humidity;BME280_pressure;Samples;Min_cycle;Max_cycle;Signal;HPM_P1;HPM_P2
2021/11/13 00:02:13;;;;;;;10.40;4.90;;;;;;;;;;5014154;28;20121;-74
2021/11/13 00:04:40;;;;;;;12.02;4.70;;;;;;;;;;5012858;28;20065;-75
2021/11/13 00:07:08;;;;;;;9.13;4.57;;;;;;;;;;5013798;28;20042;-74
2021/11/13 00:09:36;;;;;;;9.50;4.32;;;;;;;;;;5014113;28;20133;-79
2021/11/13 00:12:05;;;;;;;9.02;4.53;;;;;;;;;;5013126;28;20496;-79
2021/11/13 00:14:33;;;;;;;10.73;4.63;;;;;;;;;;5012627;28;20081;-72
2021/11/13 00:17:01;;;;;;;12.95;4.65;;;;;;;;;;5014304;28;20057;-74
2021/11/13 00:19:30;;;;;;;7.88;5.07;;;;;;;;;;5012709;28;20388;-74
2021/11/13 00:21:58;;;;;;;11.93;4.70;;;;;;;;;;5013786;28;20128;-79
2021/11/13 00:24:29;;;;;;;9.05;4.35;;;;;;;;;;5013797;28;20382;-72
2021/11/13 00:26:57;;;;;;;9.65;4.28;;;;;;;;;;5013850;28;20046;-78
2021/11/13 00:29:25;;;;;;;12.23;4.25;;;;;;;;;;5012733;28;20066;-74
2021/11/13 00:31:54;;;;;;;13.02;4.07;;;;;;;;;;5012655;28;20052;-75
2021/11/13 00:34:22;;;;;;;9.13;4.03;;;;;;;;;;5012177;28;20416;-75
2021/11/13 00:36:50;;;;;;;9.57;4.38;;;;;;;;;;5013534;28;20077;-79
2021/11/13 00:39:18;;;;;;;13.32;4.60;;;;;;;;;;5013874;28;20038;-75
2021/11/13 00:41:46;;;;;;;8.38;4.90;;;;;;;;;;5012644;28;20053;-75
2021/11/13 00:44:13;;;;;;;8.68;5.03;;;;;;;;;;5013473;28;20145;-72
2021/11/13 00:46:41;;;;;;;10.40;4.82;;;;;;;;;;5013287;28;20038;-72
2021/11/13 00:49:09;;;;;;;19.30;4.90;;;;;;;;;;5010693;28;20042;-72
2021/11/13 00:51:36;;;;;;;11.70;4.20;;;;;;;;;;5009303;28;20050;-79
2021/11/13 00:54:06;;;;;;;15.23;4.45;;;;;;;;;;5013004;28;20038;-79
2021/11/13 00:56:33;;;;;;;11.70;4.60;;;;;;;;;;5013629;28;20056;-75
2021/11/13 00:59:01;;;;;;;12.63;4.50;;;;;;;;;;5013726;28;20436;-79
2021/11/13 01:01:28;;;;;;;11.60;4.25;;;;;;;;;;5011967;28;20065;-72
2021/11/13 01:03:57;;;;;;;8.13;4.15;;;;;;;;;;4995232;28;20501;-72
2021/11/13 01:06:25;;;;;;;13.90;4.53;;;;;;;;;;5013356;28;20414;-79
2021/11/13 01:08:53;;;;;;;10.35;4.60;;;;;;;;;;4995807;28;20057;-75
2021/11/13 01:11:20;;;;;;;10.23;4.70;;;;;;;;;;5012080;28;20133;-75
2021/11/13 01:13:48;;;;;;;12.20;4.78;;;;;;;;;;5013506;28;20038;-72
2021/11/13 01:16:16;;;;;;;8.75;4.05;;;;;;;;;;5012113;28;20049;-79
2021/11/13 01:18:46;;;;;;;8.07;4.38;;;;;;;;;;5011291;28;20057;-77
2021/11/13 01:21:17;;;;;;;11.05;4.30;;;;;;;;;;5013503;28;20112;-74
2021/11/13 01:23:44;;;;;;;9.77;4.38;;;;;;;;;;5011637;28;20129;-77
2021/11/13 01:26:12;;;;;;;8.73;4.60;;;;;;;;;;5013175;28;20045;-75
2021/11/13 01:28:40;;;;;;;10.75;4.60;;;;;;;;;;5011565;28;20056;-75
2021/11/13 01:31:07;;;;;;;9.38;4.50;;;;;;;;;;5012758;28;20177;-78
2021/11/13 01:33:35;;;;;;;10.43;4.03;;;;;;;;;;5012517;28;20128;-72
2021/11/13 01:36:04;;;;;;;6.32;3.80;;;;;;;;;;5012265;28;20133;-72
2021/11/13 01:38:34;;;;;;;7.50;3.75;;;;;;;;;;5011908;28;20596;-72
2021/11/13 01:41:02;;;;;;;7.00;3.83;;;;;;;;;;5013366;28;20046;-75
2021/11/13 01:43:35;;;;;;;6.80;3.53;;;;;;;;;;4995159;28;20524;-75
2021/11/13 01:46:04;;;;;;;8.73;3.78;;;;;;;;;;5011322;28;20045;-74
2021/11/13 01:48:32;;;;;;;9.23;3.80;;;;;;;;;;5012713;28;20038;-79
2021/11/13 01:51:00;;;;;;;6.75;3.47;;;;;;;;;;5013034;28;20041;-74
2021/11/13 01:53:28;;;;;;;8.65;4.25;;;;;;;;;;5011544;28;20520;-75
2021/11/13 01:55:56;;;;;;;10.23;3.92;;;;;;;;;;5012791;28;20408;-74
2021/11/13 01:58:24;;;;;;;7.90;3.40;;;;;;;;;;5013183;28;20374;-72
2021/11/13 02:00:56;;;;;;;10.27;4.20;;;;;;;;;;5012698;28;20125;-75
2021/11/13 02:03:24;;;;;;;6.25;3.60;;;;;;;;;;5011274;28;20543;-72
2021/11/13 02:05:52;;;;;;;6.97;3.63;;;;;;;;;;5012510;28;20038;-74
2021/11/13 02:08:20;;;;;;;8.68;3.85;;;;;;;;;;5012659;28;20099;-74
2021/11/13 02:10:48;;;;;;;7.30;3.97;;;;;;;;;;5012774;28;20069;-78
2021/11/13 02:13:16;;;;;;;9.70;4.03;;;;;;;;;;5016410;28;20124;-72
2021/11/13 02:15:44;;;;;;;9.98;4.32;;;;;;;;;;5014788;28;20045;-78
2021/11/13 02:18:11;;;;;;;7.68;3.58;;;;;;;;;;5014644;28;20057;-72
2021/11/13 02:20:40;;;;;;;9.68;4.85;;;;;;;;;;5016396;28;20037;-75
2021/11/13 02:23:08;;;;;;;7.13;3.83;;;;;;;;;;5015954;28;20050;-74
2021/11/13 02:25:36;;;;;;;8.32;4.68;;;;;;;;;;5014625;28;20390;-74
2021/11/13 02:28:06;;;;;;;9.52;4.55;;;;;;;;;;5015985;28;20034;-75
2021/11/13 02:30:34;;;;;;;9.45;4.93;;;;;;;;;;5015560;28;20512;-79
2021/11/13 02:33:02;;;;;;;8.07;4.50;;;;;;;;;;5015881;28;20092;-79
2021/11/13 02:35:32;;;;;;;7.32;4.78;;;;;;;;;;5016007;28;20042;-75
2021/11/13 02:38:09;;;;;;;11.43;4.63;;;;;;;;;;5014864;28;20069;-74
2021/11/13 02:40:37;;;;;;;10.50;5.07;;;;;;;;;;5016267;28;20050;-72
2021/11/13 02:43:05;;;;;;;14.93;4.80;;;;;;;;;;5014430;28;20042;-72
2021/11/13 02:45:33;;;;;;;10.18;4.60;;;;;;;;;;5015443;28;20124;-71
2021/11/13 02:48:01;;;;;;;9.98;5.10;;;;;;;;;;5015876;28;20045;-71
2021/11/13 02:50:32;;;;;;;7.65;4.63;;;;;;;;;;5016089;28;20038;-79
2021/11/13 02:53:00;;;;;;;10.63;4.60;;;;;;;;;;5014657;28;20470;-74
2021/11/13 02:55:28;;;;;;;12.32;4.90;;;;;;;;;;5014547;28;20053;-74
2021/11/13 02:57:55;;;;;;;9.10;5.00;;;;;;;;;;5015978;28;20046;-75
2021/11/13 03:00:25;;;;;;;10.10;4.63;;;;;;;;;;5015118;28;20046;-74
2021/11/13 03:02:53;;;;;;;11.65;4.97;;;;;;;;;;5015668;28;20049;-72
2021/11/13 03:05:30;;;;;;;11.48;5.30;;;;;;;;;;5015315;28;20041;-73
2021/11/13 03:07:59;;;;;;;8.75;4.75;;;;;;;;;;5015087;28;20042;-79
2021/11/13 03:10:29;;;;;;;13.77;4.95;;;;;;;;;;5013925;28;20449;-72
2021/11/13 03:12:57;;;;;;;13.07;6.75;;;;;;;;;;5015095;28;20121;-72
2021/11/13 03:15:25;;;;;;;14.55;6.75;;;;;;;;;;5013904;28;20038;-74
2021/11/13 03:17:54;;;;;;;15.40;7.75;;;;;;;;;;5013605;28;20173;-74
2021/11/13 03:20:26;;;;;;;11.70;7.38;;;;;;;;;;5014864;28;20041;-74
2021/11/13 03:22:54;;;;;;;17.73;8.60;;;;;;;;;;5014039;28;20042;-71
2021/11/13 03:25:23;;;;;;;15.90;8.15;;;;;;;;;;5015007;28;20127;-72
2021/11/13 03:27:52;;;;;;;13.73;7.80;;;;;;;;;;5014900;28;20129;-74
2021/11/13 03:30:21;;;;;;;19.15;8.43;;;;;;;;;;5013428;28;20053;-72
2021/11/13 03:32:50;;;;;;;15.27;8.77;;;;;;;;;;5013892;28;20040;-72
2021/11/13 03:35:27;;;;;;;20.98;9.13;;;;;;;;;;5015049;28;20038;-72
2021/11/13 03:38:02;;;;;;;16.70;9.02;;;;;;;;;;5014469;28;20045;-75
2021/11/13 03:40:30;;;;;;;18.65;9.02;;;;;;;;;;5014826;28;20081;-75
2021/11/13 03:42:57;;;;;;;18.05;9.02;;;;;;;;;;5014476;28;20044;-79
2021/11/13 03:45:25;;;;;;;16.70;8.95;;;;;;;;;;5014799;28;20045;-75
2021/11/13 03:47:53;;;;;;;22.17;9.75;;;;;;;;;;5014376;28;20042;-79
2021/11/13 03:50:22;;;;;;;23.60;9.50;;;;;;;;;;5014543;28;20042;-78
2021/11/13 03:52:50;;;;;;;18.30;9.73;;;;;;;;;;5013529;28;20120;-75
2021/11/13 03:55:20;;;;;;;16.60;9.05;;;;;;;;;;5014780;28;20050;-74
2021/11/13 03:57:48;;;;;;;19.92;9.88;;;;;;;;;;5012807;28;20080;-72
2021/11/13 04:00:16;;;;;;;16.85;8.95;;;;;;;;;;5015069;28;20466;-74
2021/11/13 04:02:46;;;;;;;18.60;9.18;;;;;;;;;;5013165;28;20064;-79
2021/11/13 04:05:14;;;;;;;17.48;9.85;;;;;;;;;;5014373;28;20053;-72
2021/11/13 04:07:42;;;;;;;18.33;10.07;;;;;;;;;;5014390;28;20129;-75
2021/11/13 04:10:11;;;;;;;20.33;8.95;;;;;;;;;;5014338;28;20041;-74
2021/11/13 04:12:41;;;;;;;16.15;8.80;;;;;;;;;;4996647;28;20053;-76
2021/11/13 04:15:09;;;;;;;16.05;8.45;;;;;;;;;;5014351;28;20042;-73
2021/11/13 04:17:37;;;;;;;23.05;9.15;;;;;;;;;;5014056;28;20054;-74
2021/11/13 04:20:06;;;;;;;15.55;8.68;;;;;;;;;;5013113;28;20077;-75
2021/11/13 04:22:33;;;;;;;16.13;7.95;;;;;;;;;;5014030;28;20052;-72
2021/11/13 04:25:01;;;;;;;15.82;8.10;;;;;;;;;;5014050;28;20076;-74
2021/11/13 04:27:28;;;;;;;17.35;7.97;;;;;;;;;;5012035;28;20469;-72
2021/11/13 04:29:57;;;;;;;18.13;8.57;;;;;;;;;;5013894;28;20056;-73
2021/11/13 04:32:29;;;;;;;15.90;8.38;;;;;;;;;;5012623;28;20422;-78
2021/11/13 04:37:25;;;;;;;15.80;7.80;;;;;;;;;;5013733;28;20500;-79
2021/11/13 04:39:52;;;;;;;13.35;7.05;;;;;;;;;;5012538;28;20416;-74
2021/11/13 04:42:27;;;;;;;13.90;7.20;;;;;;;;;;5013022;28;20037;-79
2021/11/13 04:44:55;;;;;;;10.73;7.03;;;;;;;;;;5013820;28;20121;-74
2021/11/13 04:47:22;;;;;;;17.33;7.88;;;;;;;;;;5012373;28;20034;-72
2021/11/13 04:49:50;;;;;;;10.98;7.30;;;;;;;;;;5013598;28;20069;-74
2021/11/13 04:52:17;;;;;;;13.00;8.23;;;;;;;;;;5013753;28;20038;-79
2021/11/13 04:54:44;;;;;;;18.35;9.00;;;;;;;;;;5011426;28;20052;-79
2021/11/13 04:57:13;;;;;;;16.25;11.45;;;;;;;;;;5011468;28;20144;-78
2021/11/13 04:59:42;;;;;;;12.23;8.38;;;;;;;;;;5013989;28;20068;-79
2021/11/13 05:02:09;;;;;;;13.98;9.27;;;;;;;;;;5013476;28;20045;-79
2021/11/13 05:04:37;;;;;;;14.13;8.10;;;;;;;;;;5013099;28;20100;-72
2021/11/13 05:07:05;;;;;;;13.65;7.93;;;;;;;;;;5012063;28;20053;-72
2021/11/13 05:09:32;;;;;;;15.35;8.45;;;;;;;;;;5013110;28;20038;-74
2021/11/13 05:12:00;;;;;;;18.08;8.98;;;;;;;;;;5011925;28;20042;-74
2021/11/13 05:14:27;;;;;;;13.93;8.52;;;;;;;;;;5013382;28;20509;-78
2021/11/13 05:16:55;;;;;;;21.23;9.48;;;;;;;;;;5013040;28;20042;-78
2021/11/13 05:19:22;;;;;;;16.48;9.50;;;;;;;;;;5012934;28;20041;-72
2021/11/13 05:21:50;;;;;;;14.90;9.35;;;;;;;;;;5013404;28;20044;-75
2021/11/13 05:24:17;;;;;;;13.45;8.93;;;;;;;;;;5012781;28;20052;-79
2021/11/13 05:26:45;;;;;;;14.88;9.88;;;;;;;;;;5012735;28;20096;-79
2021/11/13 05:29:12;;;;;;;14.05;9.00;;;;;;;;;;5012993;28;20053;-79
2021/11/13 05:31:40;;;;;;;14.88;9.20;;;;;;;;;;5013180;28;20124;-74
2021/11/13 05:34:08;;;;;;;16.13;9.25;;;;;;;;;;5011958;28;20485;-74
2021/11/13 05:36:35;;;;;;;13.45;9.50;;;;;;;;;;5013466;28;20125;-75
2021/11/13 05:39:03;;;;;;;18.40;9.90;;;;;;;;;;5012759;28;20137;-74
2021/11/13 05:41:31;;;;;;;12.63;9.15;;;;;;;;;;5012847;28;20464;-72
2021/11/13 05:43:59;;;;;;;15.25;8.38;;;;;;;;;;5011770;28;20497;-72
2021/11/13 05:46:31;;;;;;;;;;;;;;;;;;5014337;28;20046;-72
2021/11/13 05:49:00;;;;;;;13.10;9.27;;;;;;;;;;5016606;28;19921;-72
2021/11/13 05:51:28;;;;;;;16.10;9.57;;;;;;;;;;5016977;28;20046;-79
2021/11/13 05:53:55;;;;;;;13.85;9.23;;;;;;;;;;5015126;28;20509;-79
2021/11/13 05:56:24;;;;;;;14.48;8.93;;;;;;;;;;5016795;28;20045;-74
2021/11/13 05:58:58;;;;;;;17.15;9.15;;;;;;;;;;5015889;28;20049;-79
2021/11/13 06:01:30;;;;;;;18.05;9.63;;;;;;;;;;5015488;28;20136;-79
2021/11/13 06:03:58;;;;;;;14.57;8.82;;;;;;;;;;5016504;28;20047;-79
2021/11/13 06:06:26;;;;;;;16.50;9.07;;;;;;;;;;5015602;28;20508;-79
2021/11/13 06:08:53;;;;;;;16.40;9.77;;;;;;;;;;5012661;28;20052;-74
2021/11/13 06:11:22;;;;;;;10.88;8.18;;;;;;;;;;5013465;28;20177;-76
2021/11/13 06:13:50;;;;;;;15.30;8.50;;;;;;;;;;5016108;28;20038;-72
2021/11/13 06:16:17;;;;;;;16.13;8.75;;;;;;;;;;5015728;28;20048;-76
2021/11/13 06:18:45;;;;;;;12.00;8.02;;;;;;;;;;5014260;28;20160;-75
2021/11/13 06:21:14;;;;;;;15.02;8.68;;;;;;;;;;5014714;28;20050;-76
2021/11/13 06:23:45;;;;;;;14.50;7.93;;;;;;;;;;5014915;28;20050;-76
2021/11/13 06:26:25;;;;;;;12.95;8.10;;;;;;;;;;5016359;28;20129;-78
2021/11/13 06:28:52;;;;;;;14.38;7.95;;;;;;;;;;5014783;28;20119;-77
2021/11/13 06:31:19;;;;;;;15.98;8.00;;;;;;;;;;5015786;28;20050;-75
2021/11/13 06:33:47;;;;;;;13.82;8.18;;;;;;;;;;5013249;28;20045;-77
2021/11/13 06:36:14;;;;;;;14.00;8.48;;;;;;;;;;5014857;28;20046;-74
2021/11/13 06:38:42;;;;;;;16.00;7.57;;;;;;;;;;5016093;28;20128;-74
2021/11/13 06:41:09;;;;;;;10.57;7.07;;;;;;;;;;5014766;28;20417;-77
2021/11/13 06:43:38;;;;;;;14.80;7.85;;;;;;;;;;5014843;28;20088;-72
2021/11/13 06:46:07;;;;;;;13.48;7.00;;;;;;;;;;4997997;28;20158;-72
2021/11/13 06:48:35;;;;;;;10.82;6.45;;;;;;;;;;5014289;28;20502;-72
2021/11/13 06:51:02;;;;;;;16.05;6.85;;;;;;;;;;5015598;28;20069;-72
2021/11/13 06:53:30;;;;;;;10.90;6.13;;;;;;;;;;4998458;28;20053;-77
2021/11/13 06:55:58;;;;;;;10.35;5.88;;;;;;;;;;5015845;28;20526;-75
2021/11/13 06:58:26;;;;;;;13.90;4.88;;;;;;;;;;5014203;28;20049;-76
2021/11/13 07:00:54;;;;;;;9.75;5.30;;;;;;;;;;4997638;28;20421;-77
2021/11/13 07:03:22;;;;;;;14.60;5.25;;;;;;;;;;5014312;28;20532;-74
2021/11/13 07:05:50;;;;;;;11.60;5.10;;;;;;;;;;5014108;28;20053;-75
2021/11/13 07:08:18;;;;;;;13.07;5.72;;;;;;;;;;5015408;28;20133;-77
2021/11/13 07:10:51;;;;;;;10.57;6.15;;;;;;;;;;5014901;28;20048;-75
2021/11/13 07:13:25;;;;;;;12.98;6.28;;;;;;;;;;5015601;28;20498;-78
2021/11/13 07:15:55;;;;;;;9.57;5.43;;;;;;;;;;5015356;28;20068;-72
2021/11/13 07:18:24;;;;;;;9.98;5.85;;;;;;;;;;5014000;28;20474;-73
2021/11/13 07:20:54;;;;;;;10.50;5.82;;;;;;;;;;5015041;28;20108;-77
2021/11/13 07:23:22;;;;;;;10.00;5.13;;;;;;;;;;5015031;28;20126;-78
2021/11/13 07:25:50;;;;;;;11.55;5.70;;;;;;;;;;5014016;28;20517;-73
2021/11/13 07:28:32;;;;;;;10.13;5.10;;;;;;;;;;5015033;28;20042;-72
2021/11/13 07:31:00;;;;;;;10.45;5.68;;;;;;;;;;5013918;28;20038;-78
2021/11/13 07:33:27;;;;;;;11.30;5.85;;;;;;;;;;5014163;28;20073;-72
2021/11/13 07:35:55;;;;;;;20.98;10.45;;;;;;;;;;4997226;28;20149;-77
2021/11/13 07:38:24;;;;;;;22.65;12.18;;;;;;;;;;5014680;28;20054;-74
2021/11/13 07:40:54;;;;;;;18.48;8.55;;;;;;;;;;5014519;28;20129;-76
2021/11/13 07:43:22;;;;;;;14.45;8.60;;;;;;;;;;5013310;28;20145;-77
2021/11/13 07:45:50;;;;;;;15.57;8.82;;;;;;;;;;5012742;28;20050;-74
2021/11/13 07:48:17;;;;;;;13.52;7.45;;;;;;;;;;5014468;28;20041;-78
2021/11/13 07:50:46;;;;;;;14.43;8.02;;;;;;;;;;5014522;28;20086;-72
2021/11/13 07:53:13;;;;;;;18.38;10.65;;;;;;;;;;5014402;28;20041;-74
2021/11/13 07:55:41;;;;;;;15.98;8.32;;;;;;;;;;5014540;28;20046;-74
2021/11/13 07:58:09;;;;;;;16.17;8.52;;;;;;;;;;5013499;28;20060;-75
2021/11/13 08:00:38;;;;;;;16.77;8.40;;;;;;;;;;5014448;28;20067;-71
2021/11/13 08:03:06;;;;;;;16.70;10.80;;;;;;;;;;5014342;28;20053;-76
2021/11/13 08:05:33;;;;;;;18.30;12.20;;;;;;;;;;5014380;28;20125;-74
2021/11/13 08:08:01;;;;;;;20.35;13.07;;;;;;;;;;5014019;28;20088;-74
2021/11/13 08:10:35;;;;;;;17.95;13.02;;;;;;;;;;5012437;28;20098;-72
2021/11/13 08:13:04;;;;;;;23.63;13.60;;;;;;;;;;5014401;28;20073;-77
2021/11/13 08:15:31;;;;;;;26.70;14.57;;;;;;;;;;5014067;28;20038;-73
2021/11/13 08:17:58;;;;;;;23.08;13.05;;;;;;;;;;5097943;23;20046;-74
2021/11/13 08:20:26;;;;;;;20.92;11.25;;;;;;;;;;5013217;28;20050;-72
2021/11/13 08:22:55;;;;;;;20.52;12.35;;;;;;;;;;5013893;28;20485;-72
2021/11/13 08:25:22;;;;;;;17.48;9.63;;;;;;;;;;5012055;28;20041;-73
2021/11/13 08:27:53;;;;;;;16.45;8.23;;;;;;;;;;5013769;28;20466;-73
2021/11/13 08:30:22;;;;;;;14.30;6.97;;;;;;;;;;5014032;28;20080;-72
2021/11/13 08:32:51;;;;;;;13.65;7.82;;;;;;;;;;5013975;28;20432;-73
2021/11/13 08:35:19;;;;;;;14.57;6.90;;;;;;;;;;5013531;28;20698;-73
2021/11/13 08:37:47;;;;;;;15.50;6.35;;;;;;;;;;5012652;28;20076;-72
2021/11/13 08:40:15;;;;;;;15.73;7.10;;;;;;;;;;5013767;28;20048;-74
2021/11/13 08:42:43;;;;;;;15.23;6.38;;;;;;;;;;5013742;28;20068;-73
2021/11/13 08:45:13;;;;;;;14.15;5.68;;;;;;;;;;5013718;28;20052;-75
2021/11/13 08:47:43;;;;;;;11.18;5.25;;;;;;;;;;5013780;28;20156;-74
2021/11/13 08:50:18;;;;;;;10.85;4.72;;;;;;;;;;5013820;28;20046;-74
2021/11/13 08:52:49;;;;;;;15.15;5.20;;;;;;;;;;5013543;28;20048;-74
2021/11/13 08:55:18;;;;;;;12.43;4.90;;;;;;;;;;5012258;28;20038;-72
2021/11/13 08:57:45;;;;;;;11.82;4.70;;;;;;;;;;5013831;28;20117;-72
2021/11/13 09:00:20;;;;;;;10.73;4.97;;;;;;;;;;5012520;28;20049;-73
2021/11/13 09:02:47;;;;;;;12.85;4.85;;;;;;;;;;5013257;28;20120;-72
2021/11/13 09:05:15;;;;;;;9.90;4.68;;;;;;;;;;5013562;28;20042;-73
2021/11/13 09:07:42;;;;;;;9.25;4.18;;;;;;;;;;5013279;28;20050;-71
2021/11/13 09:10:10;;;;;;;14.00;6.00;;;;;;;;;;5013383;28;20060;-73
2021/11/13 09:12:38;;;;;;;15.10;7.07;;;;;;;;;;5013301;28;20038;-71
2021/11/13 09:15:09;;;;;;;19.33;6.50;;;;;;;;;;5013510;28;20125;-72
2021/11/13 09:17:37;;;;;;;11.57;5.70;;;;;;;;;;5013335;28;20081;-71
2021/11/13 09:20:06;;;;;;;12.18;5.25;;;;;;;;;;5012402;28;20092;-72
2021/11/13 09:22:33;;;;;;;15.10;5.00;;;;;;;;;;5012333;28;20042;-71
2021/11/13 09:25:02;;;;;;;14.50;6.63;;;;;;;;;;5018487;28;20481;-72
2021/11/13 09:27:30;;;;;;;10.20;4.38;;;;;;;;;;5031569;28;20091;-72
2021/11/13 09:29:58;;;;;;;13.68;4.57;;;;;;;;;;5032229;28;20045;-71
2021/11/13 09:32:25;;;;;;;10.40;4.85;;;;;;;;;;5032084;28;20137;-72
2021/11/13 09:34:53;;;;;;;11.23;4.53;;;;;;;;;;5031897;28;20492;-74
2021/11/13 09:37:21;;;;;;;11.52;4.20;;;;;;;;;;5030237;28;20497;-72
2021/11/13 09:39:49;;;;;;;10.75;4.00;;;;;;;;;;5032656;28;20493;-72
2021/11/13 09:42:17;;;;;;;9.50;4.22;;;;;;;;;;5032415;28;20049;-72
2021/11/13 09:44:45;;;;;;;8.90;4.00;;;;;;;;;;5032271;28;20465;-72
2021/11/13 09:47:14;;;;;;;8.13;3.55;;;;;;;;;;5030809;28;20057;-72
2021/11/13 09:49:44;;;;;;;8.30;3.67;;;;;;;;;;5032054;28;20041;-73
2021/11/13 09:52:14;;;;;;;7.38;3.17;;;;;;;;;;5032250;28;20686;-73
2021/11/13 09:54:43;;;;;;;8.25;3.33;;;;;;;;;;5032446;28;20037;-72
2021/11/13 09:57:11;;;;;;;10.07;3.80;;;;;;;;;;5032055;28;20042;-73
2021/11/13 09:59:38;;;;;;;7.65;3.42;;;;;;;;;;5031906;28;20041;-73
2021/11/13 10:02:06;;;;;;;8.90;3.60;;;;;;;;;;5031713;28;20056;-72
2021/11/13 10:04:34;;;;;;;9.10;3.03;;;;;;;;;;5032043;28;20045;-73
2021/11/13 10:07:04;;;;;;;10.95;3.05;;;;;;;;;;5032167;28;20041;-73
2021/11/13 10:09:31;;;;;;;9.15;4.15;;;;;;;;;;5031934;28;20400;-73
2021/11/13 10:12:01;;;;;;;10.30;3.90;;;;;;;;;;5031978;28;20053;-73
2021/11/13 10:14:35;;;;;;;12.07;3.97;;;;;;;;;;5031781;28;20038;-72
2021/11/13 10:17:15;;;;;;;11.00;4.00;;;;;;;;;;5031895;28;20053;-73
2021/11/13 10:19:43;;;;;;;9.32;4.00;;;;;;;;;;5031961;28;20048;-72
2021/11/13 10:22:11;;;;;;;10.52;4.40;;;;;;;;;;5032046;28;20520;-72
2021/11/13 10:24:45;;;;;;;11.43;4.50;;;;;;;;;;5031710;28;20042;-73
2021/11/13 10:27:13;;;;;;;11.18;4.30;;;;;;;;;;5032043;28;20050;-73
2021/11/13 10:29:44;;;;;;;14.35;5.43;;;;;;;;;;5031470;28;20503;-72
2021/11/13 10:32:13;;;;;;;12.82;5.18;;;;;;;;;;5032456;28;20048;-72
2021/11/13 10:34:44;;;;;;;11.65;4.18;;;;;;;;;;5035239;28;20042;-72
2021/11/13 10:37:16;;;;;;;11.35;4.57;;;;;;;;;;5033965;28;20068;-73
2021/11/13 10:39:44;;;;;;;14.20;4.95;;;;;;;;;;5035630;28;20046;-74
2021/11/13 10:42:12;;;;;;;9.65;5.35;;;;;;;;;;5035320;28;20103;-73
2021/11/13 10:44:45;;;;;;;11.52;4.32;;;;;;;;;;5034614;28;20445;-73
2021/11/13 10:47:13;;;;;;;10.35;3.97;;;;;;;;;;5035320;28;20081;-74
2021/11/13 10:49:41;;;;;;;8.63;4.15;;;;;;;;;;5035129;28;20040;-74
2021/11/13 10:52:09;;;;;;;9.85;4.22;;;;;;;;;;5035152;28;20121;-72
2021/11/13 10:54:38;;;;;;;10.70;4.68;;;;;;;;;;5035178;28;20378;-72
2021/11/13 10:57:08;;;;;;;11.05;4.38;;;;;;;;;;5034858;28;20060;-72
2021/11/13 10:59:37;;;;;;;11.82;4.00;;;;;;;;;;5033471;28;20042;-72
2021/11/13 11:02:07;;;;;;;6.97;3.92;;;;;;;;;;5033946;28;20045;-73
2021/11/13 11:04:36;;;;;;;10.38;4.40;;;;;;;;;;5033576;28;20515;-73
2021/11/13 11:07:09;;;;;;;10.02;4.30;;;;;;;;;;5034926;28;20432;-72
2021/11/13 11:09:45;;;;;;;10.65;3.97;;;;;;;;;;5034571;28;20088;-72
2021/11/13 11:12:12;;;;;;;11.88;4.53;;;;;;;;;;5034474;28;20053;-72
2021/11/13 11:14:42;;;;;;;10.25;3.83;;;;;;;;;;5034418;28;20052;-73
2021/11/13 11:17:13;;;;;;;10.55;3.95;;;;;;;;;;5034131;28;20049;-73
2021/11/13 11:19:45;;;;;;;9.20;3.10;;;;;;;;;;5034247;28;20045;-73
2021/11/13 11:22:24;;;;;;;8.73;3.20;;;;;;;;;;5034424;28;20041;-73
2021/11/13 11:24:54;;;;;;;7.55;3.15;;;;;;;;;;5034202;28;20145;-73
2021/11/13 11:27:23;;;;;;;9.07;3.33;;;;;;;;;;5027204;28;20122;-73
2021/11/13 11:29:53;;;;;;;9.15;3.47;;;;;;;;;;5011864;28;20041;-73
2021/11/13 11:32:23;;;;;;;7.78;3.05;;;;;;;;;;5012062;28;20116;-73
2021/11/13 11:34:52;;;;;;;7.38;3.60;;;;;;;;;;5012140;28;20112;-74
2021/11/13 11:37:25;;;;;;;7.55;3.60;;;;;;;;;;5012081;28;20038;-73
2021/11/13 11:39:57;;;;;;;8.15;3.42;;;;;;;;;;5010944;28;20125;-74
2021/11/13 11:42:25;;;;;;;7.07;3.75;;;;;;;;;;5012729;28;20037;-72
2021/11/13 11:44:54;;;;;;;9.30;3.67;;;;;;;;;;5010183;28;20397;-74
2021/11/13 11:47:23;;;;;;;8.10;4.32;;;;;;;;;;5013204;28;20042;-73
2021/11/13 11:49:54;;;;;;;8.40;4.07;;;;;;;;;;5012651;28;20064;-73
2021/11/13 11:52:22;;;;;;;10.57;4.38;;;;;;;;;;5011903;28;20048;-72
2021/11/13 11:54:50;;;;;;;9.75;4.03;;;;;;;;;;5012404;28;20038;-73
2021/11/13 11:57:37;;;;;;;6.97;4.03;;;;;;;;;;5012618;28;20048;-73
2021/11/13 12:00:08;;;;;;;8.65;3.88;;;;;;;;;;5013092;28;20052;-73
2021/11/13 12:02:44;;;;;;;7.45;3.60;;;;;;;;;;5014105;28;20054;-74
2021/11/13 12:05:17;;;;;;;10.10;3.65;;;;;;;;;;5014126;28;20468;-74
2021/11/13 12:07:46;;;;;;;5.82;3.65;;;;;;;;;;5014065;28;20136;-73
2021/11/13 12:10:15;;;;;;;8.45;4.28;;;;;;;;;;5013508;28;20034;-74
2021/11/13 12:13:00;;;;;;;9.45;3.67;;;;;;;;;;5013866;28;20045;-73
2021/11/13 12:15:28;;;;;;;7.90;3.90;;;;;;;;;;5014288;28;20049;-73
2021/11/13 12:17:57;;;;;;;9.43;4.03;;;;;;;;;;5013422;28;20493;-73
2021/11/13 12:20:28;;;;;;;7.72;4.18;;;;;;;;;;5013898;28;20046;-74
2021/11/13 12:22:58;;;;;;;;;;;;;;;;;;5013919;28;20572;-73
2021/11/13 12:25:30;;;;;;;7.65;4.10;;;;;;;;;;5012691;28;19968;-74
2021/11/13 12:28:07;;;;;;;9.98;4.38;;;;;;;;;;5013483;28;20084;-73
2021/11/13 12:30:47;;;;;;;8.98;4.15;;;;;;;;;;5013529;28;20041;-74
2021/11/13 12:33:30;;;;;;;13.35;4.13;;;;;;;;;;5013866;28;20046;-73
2021/11/13 12:36:11;;;;;;;5.15;3.05;;;;;;;;;;5013597;28;20033;-73
2021/11/13 12:38:52;;;;;;;7.20;3.42;;;;;;;;;;5013803;28;20389;-73
2021/11/13 12:41:26;;;;;;;6.18;3.45;;;;;;;;;;5013329;28;20552;-71
2021/11/13 12:43:58;;;;;;;8.23;3.17;;;;;;;;;;5013672;28;20066;-73
2021/11/13 12:46:42;;;;;;;6.40;2.85;;;;;;;;;;5013840;28;20061;-77
2021/11/13 12:49:22;;;;;;;8.40;3.30;;;;;;;;;;5013437;28;20042;-74
2021/11/13 12:51:56;;;;;;;6.85;3.90;;;;;;;;;;5012198;28;20413;-73
2021/11/13 12:54:25;;;;;;;7.15;3.67;;;;;;;;;;5013128;28;20038;-74
2021/11/13 12:56:57;;;;;;;6.82;3.22;;;;;;;;;;5013736;28;20038;-74
2021/11/13 12:59:27;;;;;;;8.23;3.22;;;;;;;;;;5013279;28;20042;-74
2021/11/13 13:02:00;;;;;;;7.40;3.88;;;;;;;;;;5013153;28;20037;-75
2021/11/13 13:04:31;;;;;;;4.60;2.90;;;;;;;;;;5012393;28;20049;-71
2021/11/13 13:07:00;;;;;;;7.63;2.60;;;;;;;;;;5013304;28;20050;-75
2021/11/13 13:09:29;;;;;;;8.02;3.55;;;;;;;;;;5012818;28;20068;-72
2021/11/13 13:12:01;;;;;;;5.85;3.00;;;;;;;;;;5013196;28;20046;-72
2021/11/13 13:14:31;;;;;;;5.93;3.20;;;;;;;;;;5013538;28;20096;-72
2021/11/13 13:16:59;;;;;;;4.15;2.95;;;;;;;;;;5013649;28;20393;-74
2021/11/13 13:19:35;;;;;;;4.43;2.97;;;;;;;;;;5013536;28;20474;-72
2021/11/13 13:22:05;;;;;;;8.60;3.13;;;;;;;;;;5013095;28;20049;-72
2021/11/13 13:24:39;;;;;;;5.20;3.03;;;;;;;;;;5012468;28;20112;-72
2021/11/13 13:27:10;;;;;;;9.35;2.95;;;;;;;;;;5013072;28;20066;-72
2021/11/13 13:29:41;;;;;;;6.68;2.97;;;;;;;;;;5013323;28;20041;-74
2021/11/13 13:32:15;;;;;;;7.85;3.00;;;;;;;;;;5012791;28;20180;-73
2021/11/13 13:34:51;;;;;;;8.65;3.60;;;;;;;;;;5028433;28;20038;-74
2021/11/13 13:37:22;;;;;;;6.78;3.22;;;;;;;;;;5012951;28;20049;-74
2021/11/13 13:39:54;;;;;;;10.52;3.65;;;;;;;;;;5011462;28;20056;-74
2021/11/13 13:42:30;;;;;;;7.70;3.13;;;;;;;;;;5012908;28;20137;-74
2021/11/13 13:44:59;;;;;;;5.90;3.03;;;;;;;;;;5013133;28;20056;-73
2021/11/13 13:47:27;;;;;;;6.13;3.00;;;;;;;;;;5028018;28;20049;-74
2021/11/13 13:50:01;;;;;;;10.45;3.33;;;;;;;;;;5012944;28;20387;-74
2021/11/13 13:52:36;;;;;;;4.70;2.88;;;;;;;;;;5012564;28;20049;-74
2021/11/13 13:55:04;;;;;;;8.55;3.08;;;;;;;;;;5013175;28;20042;-75
2021/11/13 13:57:32;;;;;;;8.13;2.83;;;;;;;;;;5013246;28;20417;-73
2021/11/13 14:00:02;;;;;;;5.07;2.85;;;;;;;;;;5013022;28;20141;-74
2021/11/13 14:02:42;;;;;;;4.97;2.70;;;;;;;;;;5012726;28;20074;-75
2021/11/13 14:05:31;;;;;;;6.47;2.70;;;;;;;;;;5012645;28;20493;-72
2021/11/13 14:08:05;;;;;;;6.75;2.97;;;;;;;;;;5013975;28;20045;-73
2021/11/13 14:10:49;;;;;;;8.38;3.20;;;;;;;;;;5016530;28;20123;-72
2021/11/13 14:13:19;;;;;;;6.80;3.13;;;;;;;;;;5016229;28;20038;-72
2021/11/13 14:15:56;;;;;;;8.57;3.35;;;;;;;;;;5015456;28;20069;-72
2021/11/13 14:18:45;;;;;;;14.43;3.35;;;;;;;;;;5016146;28;20389;-75
2021/11/13 14:21:14;;;;;;;6.20;3.30;;;;;;;;;;5016057;28;20046;-73
2021/11/13 14:23:43;;;;;;;11.27;3.35;;;;;;;;;;5014163;28;20056;-74
2021/11/13 14:26:19;;;;;;;9.20;3.65;;;;;;;;;;5015511;28;20092;-73
2021/11/13 14:28:48;;;;;;;11.95;3.80;;;;;;;;;;5015000;28;20108;-74
2021/11/13 14:31:21;;;;;;;9.52;3.78;;;;;;;;;;5014212;28;20113;-74
2021/11/13 14:33:48;;;;;;;10.43;3.83;;;;;;;;;;5005579;28;20029;-74
2021/11/13 14:36:21;;;;;;;13.93;3.80;;;;;;;;;;5015547;28;20119;-74
2021/11/13 14:38:55;;;;;;;12.25;3.97;;;;;;;;;;5015789;28;20038;-73
2021/11/13 14:41:25;;;;;;;6.68;3.63;;;;;;;;;;5014524;28;20038;-74
2021/11/13 14:43:54;;;;;;;8.00;3.80;;;;;;;;;;5015527;28;20041;-73
2021/11/13 14:46:24;;;;;;;8.60;3.63;;;;;;;;;;5027749;28;20048;-73
2021/11/13 14:48:57;;;;;;;11.75;4.07;;;;;;;;;;5015025;28;20053;-73
2021/11/13 14:51:24;;;;;;;;;;;;;;;;;;5014418;28;20045;-73
2021/11/13 14:53:52;;;;;;;5.75;3.35;;;;;;;;;;5014444;28;19950;-73